Time,TemperatureF,DewpointF,PressureIn,WindDirection,WindDirectionDegrees,WindSpeedMPH,WindSpeedGustMPH,Humidity,HourlyPrecipIn,Conditions,Clouds,dailyrainin,SolarRadiationWatts/m^2,SoftwareType,DateUTC
2013-06-18 00:00:00,70.0,69.1,29.99,SSW,211,1.0,4.0,94,0.00,,,1.01,0.0,meteohub,2013-06-18 04:00:00,
2013-06-18 00:01:00,70.0,69.1,29.99,SSW,213,1.0,4.0,94,0.00,,,1.01,0.0,meteohub,2013-06-18 04:01:00,
2013-06-18 00:02:00,70.0,69.1,29.99,WSW,250,0.0,4.0,94,0.00,,,1.01,0.0,meteohub,2013-06-18 04:02:00,
2013-06-18 00:07:00,70.0,69.1,29.99,WSW,250,0.0,4.0,94,0.00,,,0.00,0.0,meteohub,2013-06-18 04:07:00,
2013-06-18 00:12:00,70.0,69.1,29.99,WSW,244,0.0,5.0,94,0.00,,,0.00,0.0,meteohub,2013-06-18 04:12:00,
2013-06-18 00:17:00,70.0,69.1,29.99,WSW,238,0.0,5.0,94,0.00,,,0.00,0.0,meteohub,2013-06-18 04:17:00,
2013-06-18 00:22:00,70.0,69.1,29.99,WSW,246,0.0,7.0,94,0.00,,,0.00,0.0,meteohub,2013-06-18 04:22:00,
2013-06-18 00:27:00,70.0,69.1,29.98,WSW,246,0.0,7.0,94,0.00,,,0.00,0.0,meteohub,2013-06-18 04:27:00,
2013-06-18 00:32:00,70.0,69.1,29.97,WSW,246,0.0,4.0,94,0.00,,,0.00,0.0,meteohub,2013-06-18 04:32:00,
2013-06-18 00:37:00,70.0,69.1,29.96,NNE,28,0.0,1.0,94,0.00,,,0.00,0.0,meteohub,2013-06-18 04:37:00,
2013-06-18 00:42:00,70.0,69.1,29.98,West,279,0.0,3.0,94,0.00,,,0.00,0.0,meteohub,2013-06-18 04:42:00,
2013-06-18 00:47:00,70.0,69.1,29.98,SW,228,0.0,3.0,94,0.00,,,0.00,0.0,meteohub,2013-06-18 04:47:00,
2013-06-18 00:52:00,70.0,69.1,29.98,WSW,253,0.0,7.0,94,0.00,,,0.00,0.0,meteohub,2013-06-18 04:52:00,
2013-06-18 00:57:00,70.0,69.1,29.97,WSW,249,2.0,7.0,94,0.00,,,0.00,0.0,meteohub,2013-06-18 04:57:00,
2013-06-18 01:02:00,70.0,69.1,29.96,WSW,249,0.0,7.0,94,0.00,,,0.00,0.0,meteohub,2013-06-18 05:02:00,
2013-06-18 01:07:00,69.6,68.7,29.96,WSW,249,0.0,4.0,94,0.00,,,0.00,0.0,meteohub,2013-06-18 05:07:00,
2013-06-18 01:12:00,69.6,68.7,29.96,WSW,249,0.0,3.0,94,0.00,,,0.00,0.0,meteohub,2013-06-18 05:12:00,
2013-06-18 01:17:00,69.4,68.5,29.97,WSW,252,0.0,4.0,94,0.00,,,0.00,0.0,meteohub,2013-06-18 05:17:00,
2013-06-18 01:22:00,69.4,68.5,29.96,WSW,252,0.0,4.0,94,0.00,,,0.00,0.0,meteohub,2013-06-18 05:22:00,
2013-06-18 01:27:00,69.3,68.4,29.96,WSW,252,0.0,4.0,94,0.00,,,0.00,0.0,meteohub,2013-06-18 05:27:00,
2013-06-18 01:32:00,69.3,68.4,29.96,WSW,252,0.0,0.0,94,0.00,,,0.00,0.0,meteohub,2013-06-18 05:32:00,
2013-06-18 01:37:00,69.3,68.4,29.96,WSW,252,0.0,0.0,94,0.00,,,0.00,0.0,meteohub,2013-06-18 05:37:00,
2013-06-18 01:42:00,69.3,68.4,29.96,WSW,252,0.0,0.0,94,0.00,,,0.00,0.0,meteohub,2013-06-18 05:42:00,
2013-06-18 01:47:00,69.1,68.2,29.96,WSW,252,0.0,0.0,94,0.00,,,0.00,0.0,meteohub,2013-06-18 05:47:00,
2013-06-18 01:52:00,69.1,68.2,29.96,SW,234,0.0,0.0,94,0.00,,,0.00,0.0,meteohub,2013-06-18 05:52:00,
2013-06-18 01:57:00,69.1,68.2,29.96,SW,234,0.0,0.0,94,0.00,,,0.00,0.0,meteohub,2013-06-18 05:57:00,
2013-06-18 02:02:00,68.7,67.8,29.96,SW,234,0.0,0.0,94,0.00,,,0.00,0.0,meteohub,2013-06-18 06:02:00,
2013-06-18 02:07:00,68.7,67.8,29.96,SW,234,0.0,0.0,94,0.00,,,0.00,0.0,meteohub,2013-06-18 06:07:00,
2013-06-18 02:12:00,68.5,67.6,29.96,SW,234,0.0,0.0,94,0.00,,,0.00,0.0,meteohub,2013-06-18 06:12:00,
2013-06-18 02:17:00,68.5,67.6,29.95,SW,234,0.0,0.0,94,0.00,,,0.00,0.0,meteohub,2013-06-18 06:17:00,
2013-06-18 02:22:00,68.5,67.6,29.95,SW,234,0.0,0.0,94,0.00,,,0.00,0.0,meteohub,2013-06-18 06:22:00,
2013-06-18 02:27:00,68.5,67.6,29.95,SW,234,0.0,0.0,94,0.00,,,0.00,0.0,meteohub,2013-06-18 06:27:00,
2013-06-18 02:32:00,68.5,67.6,29.96,SW,234,0.0,0.0,94,0.00,,,0.00,0.0,meteohub,2013-06-18 06:32:00,
2013-06-18 02:37:00,68.4,67.5,29.95,SW,234,0.0,0.0,94,0.00,,,0.00,0.0,meteohub,2013-06-18 06:37:00,
2013-06-18 02:42:00,68.2,67.3,29.95,SW,234,0.0,0.0,94,0.00,,,0.00,0.0,meteohub,2013-06-18 06:42:00,
2013-06-18 02:47:00,68.2,67.3,29.95,SW,234,0.0,0.0,94,0.00,,,0.00,0.0,meteohub,2013-06-18 06:47:00,
2013-06-18 02:52:00,68.2,67.3,29.96,SW,234,0.0,0.0,94,0.00,,,0.00,0.0,meteohub,2013-06-18 06:52:00,
2013-06-18 02:57:00,68.0,67.1,29.95,SW,234,0.0,0.0,94,0.00,,,0.00,0.0,meteohub,2013-06-18 06:57:00,
2013-06-18 03:02:00,67.8,66.9,29.95,SW,234,0.0,0.0,94,0.00,,,0.00,0.0,meteohub,2013-06-18 07:02:00,
2013-06-18 03:07:00,67.8,66.9,29.95,SW,234,0.0,0.0,94,0.00,,,0.00,0.0,meteohub,2013-06-18 07:07:00,
2013-06-18 03:12:00,67.8,66.9,29.95,WSW,251,0.0,0.0,94,0.00,,,0.00,0.0,meteohub,2013-06-18 07:12:00,
2013-06-18 03:17:00,67.8,66.9,29.95,WSW,251,0.0,4.0,94,0.00,,,0.00,0.0,meteohub,2013-06-18 07:17:00,
2013-06-18 03:22:00,67.8,66.9,29.95,WSW,251,0.0,4.0,94,0.00,,,0.00,0.0,meteohub,2013-06-18 07:22:00,
2013-06-18 03:27:00,67.8,66.9,29.95,WSW,248,0.0,4.0,94,0.00,,,0.00,0.0,meteohub,2013-06-18 07:27:00,
2013-06-18 03:32:00,67.8,66.9,29.95,WSW,248,0.0,0.0,94,0.00,,,0.00,0.0,meteohub,2013-06-18 07:32:00,
2013-06-18 03:37:00,67.6,66.7,29.94,WSW,248,0.0,0.0,94,0.00,,,0.00,0.0,meteohub,2013-06-18 07:37:00,
2013-06-18 03:42:00,67.6,66.7,29.94,WSW,248,0.0,0.0,94,0.00,,,0.00,0.0,meteohub,2013-06-18 07:42:00,
2013-06-18 03:47:00,67.6,66.7,29.94,WSW,248,0.0,0.0,94,0.00,,,0.00,0.0,meteohub,2013-06-18 07:47:00,
2013-06-18 03:52:00,67.6,66.7,29.94,WSW,248,0.0,0.0,94,0.00,,,0.00,0.0,meteohub,2013-06-18 07:52:00,
2013-06-18 03:57:00,67.6,66.7,29.94,WSW,248,0.0,0.0,94,0.00,,,0.00,0.0,meteohub,2013-06-18 07:57:00,
2013-06-18 04:02:00,67.6,66.7,29.94,WSW,248,0.0,0.0,94,0.00,,,0.00,0.0,meteohub,2013-06-18 08:02:00,
2013-06-18 04:07:00,67.6,66.7,29.94,WSW,248,0.0,0.0,94,0.00,,,0.00,0.0,meteohub,2013-06-18 08:07:00,
2013-06-18 04:12:00,67.6,66.7,29.94,WSW,249,0.0,0.0,94,0.00,,,0.00,0.0,meteohub,2013-06-18 08:12:00,
2013-06-18 04:17:00,67.5,66.6,29.94,WSW,249,0.0,0.0,94,0.00,,,0.00,0.0,meteohub,2013-06-18 08:17:00,
2013-06-18 04:22:00,67.5,66.6,29.93,WSW,249,0.0,0.0,94,0.00,,,0.00,0.0,meteohub,2013-06-18 08:22:00,
2013-06-18 04:27:00,67.5,66.6,29.93,WSW,249,0.0,0.0,94,0.00,,,0.00,0.0,meteohub,2013-06-18 08:27:00,
2013-06-18 04:32:00,67.3,66.4,29.93,WSW,250,0.0,0.0,94,0.00,,,0.00,0.0,meteohub,2013-06-18 08:32:00,
2013-06-18 04:37:00,67.5,66.6,29.93,WSW,248,0.0,0.0,94,0.00,,,0.00,0.0,meteohub,2013-06-18 08:37:00,
2013-06-18 04:42:00,67.5,66.6,29.93,WSW,248,0.0,1.0,94,0.00,,,0.00,0.0,meteohub,2013-06-18 08:42:00,
2013-06-18 04:47:00,67.3,66.4,29.94,WSW,248,0.0,1.0,94,0.00,,,0.00,0.0,meteohub,2013-06-18 08:47:00,
2013-06-18 04:52:00,67.3,66.4,29.94,WSW,248,0.0,1.0,94,0.00,,,0.00,0.0,meteohub,2013-06-18 08:52:00,
2013-06-18 04:57:00,67.3,66.4,29.93,WSW,248,0.0,0.0,94,0.00,,,0.00,0.0,meteohub,2013-06-18 08:57:00,
2013-06-18 05:02:00,67.3,66.4,29.94,WSW,248,0.0,0.0,94,0.00,,,0.00,0.0,meteohub,2013-06-18 09:02:00,
2013-06-18 05:07:00,67.3,66.4,29.94,WSW,248,0.0,0.0,94,0.00,,,0.00,0.0,meteohub,2013-06-18 09:07:00,
2013-06-18 05:12:00,67.3,66.4,29.94,WSW,248,0.0,0.0,94,0.00,,,0.00,0.0,meteohub,2013-06-18 09:12:00,
2013-06-18 05:17:00,67.3,66.4,29.94,WSW,249,0.0,0.0,94,0.00,,,0.00,0.0,meteohub,2013-06-18 09:17:00,
2013-06-18 05:22:00,67.5,66.6,29.94,WSW,249,0.0,1.0,94,0.00,,,0.00,0.0,meteohub,2013-06-18 09:22:00,
2013-06-18 05:27:00,67.3,66.4,29.94,WSW,249,0.0,1.0,94,0.00,,,0.00,0.0,meteohub,2013-06-18 09:27:00,
2013-06-18 05:32:00,67.5,66.6,29.94,WSW,249,0.0,1.0,94,0.00,,,0.00,0.0,meteohub,2013-06-18 09:32:00,
2013-06-18 05:37:00,67.5,66.6,29.94,WSW,249,0.0,0.0,94,0.00,,,0.00,0.0,meteohub,2013-06-18 09:37:00,
2013-06-18 05:42:00,67.5,66.6,29.94,WSW,249,0.0,0.0,94,0.00,,,0.00,0.0,meteohub,2013-06-18 09:42:00,
2013-06-18 05:47:00,67.5,66.6,29.94,WSW,249,0.0,1.0,94,0.00,,,0.00,0.0,meteohub,2013-06-18 09:47:00,
2013-06-18 05:52:00,67.5,66.6,29.94,WSW,249,0.0,1.0,94,0.00,,,0.00,0.0,meteohub,2013-06-18 09:52:00,
2013-06-18 05:57:00,67.5,66.6,29.94,WSW,249,0.0,1.0,94,0.00,,,0.00,0.0,meteohub,2013-06-18 09:57:00,
2013-06-18 06:02:00,67.6,66.7,29.94,WSW,249,0.0,0.0,94,0.00,,,0.00,0.0,meteohub,2013-06-18 10:02:00,
2013-06-18 06:07:00,67.6,66.7,29.94,WSW,249,0.0,0.0,94,0.00,,,0.00,0.0,meteohub,2013-06-18 10:07:00,
2013-06-18 06:12:00,67.6,66.7,29.94,WSW,249,0.0,1.0,94,0.00,,,0.00,0.0,meteohub,2013-06-18 10:12:00,
2013-06-18 06:17:00,67.6,66.7,29.94,WSW,247,0.0,1.0,94,0.00,,,0.00,0.0,meteohub,2013-06-18 10:17:00,
2013-06-18 06:22:00,67.6,66.7,29.95,WSW,244,0.0,1.0,94,0.00,,,0.00,0.0,meteohub,2013-06-18 10:22:00,
2013-06-18 06:27:00,67.6,66.7,29.95,SW,236,0.0,1.0,94,0.00,,,0.00,0.0,meteohub,2013-06-18 10:27:00,
2013-06-18 06:32:00,67.8,66.9,29.94,WSW,243,0.0,7.0,94,0.00,,,0.00,0.0,meteohub,2013-06-18 10:32:00,
2013-06-18 06:37:00,67.8,66.9,29.94,WSW,237,0.0,7.0,94,0.02,,,0.02,6.0,meteohub,2013-06-18 10:37:00,
2013-06-18 06:42:00,68.0,67.1,29.94,WSW,255,3.0,7.0,94,0.03,,,0.03,10.8,meteohub,2013-06-18 10:42:00,
2013-06-18 06:47:00,68.0,67.1,29.94,WSW,249,0.0,6.0,94,0.03,,,0.03,14.4,meteohub,2013-06-18 10:47:00,
2013-06-18 06:53:00,68.0,67.1,29.94,SW,227,0.0,6.0,94,0.03,,,0.03,16.8,meteohub,2013-06-18 10:53:00,
2013-06-18 06:58:00,68.2,67.3,29.94,WSW,246,0.0,8.0,94,0.03,,,0.03,25.2,meteohub,2013-06-18 10:58:00,
2013-06-18 07:03:00,68.2,67.3,29.94,WSW,247,2.0,8.0,94,0.03,,,0.03,36.0,meteohub,2013-06-18 11:03:00,
2013-06-18 07:07:00,68.2,67.3,29.94,WSW,249,0.0,7.0,94,0.03,,,0.03,33.6,meteohub,2013-06-18 11:07:00,
2013-06-18 07:13:00,68.4,67.5,29.94,SW,225,0.0,7.0,94,0.03,,,0.03,30.0,meteohub,2013-06-18 11:13:00,
2013-06-18 07:18:00,68.5,67.6,29.94,SW,236,0.0,5.0,94,0.03,,,0.03,27.6,meteohub,2013-06-18 11:18:00,
2013-06-18 07:23:00,68.7,67.8,29.95,SW,234,0.0,5.0,94,0.03,,,0.03,33.6,meteohub,2013-06-18 11:23:00,
2013-06-18 07:28:00,68.7,67.8,29.96,WSW,245,0.0,5.0,94,0.03,,,0.03,48.0,meteohub,2013-06-18 11:28:00,
2013-06-18 07:33:00,68.9,68.0,29.96,WSW,252,1.0,4.0,94,0.02,,,0.03,63.6,meteohub,2013-06-18 11:33:00,
2013-06-18 07:38:00,69.1,68.2,29.96,WSW,239,0.0,5.0,94,0.00,,,0.03,52.8,meteohub,2013-06-18 11:38:00,
2013-06-18 07:43:00,69.3,68.4,29.96,WSW,249,2.0,6.0,94,0.00,,,0.03,46.8,meteohub,2013-06-18 11:43:00,
2013-06-18 07:48:00,69.4,68.5,29.96,WSW,238,0.0,6.0,94,0.00,,,0.03,48.0,meteohub,2013-06-18 11:48:00,
2013-06-18 07:53:00,69.4,68.5,29.96,WSW,247,0.0,6.0,94,0.00,,,0.03,46.8,meteohub,2013-06-18 11:53:00,
2013-06-18 07:58:00,69.6,68.7,29.96,WSW,257,0.0,6.0,94,0.00,,,0.03,55.2,meteohub,2013-06-18 11:58:00,
2013-06-18 08:03:00,69.6,68.7,29.97,WSW,254,1.0,5.0,94,0.00,,,0.03,46.8,meteohub,2013-06-18 12:03:00,
2013-06-18 08:08:00,69.6,68.7,29.96,WSW,254,0.0,5.0,94,0.00,,,0.03,52.8,meteohub,2013-06-18 12:08:00,
2013-06-18 08:13:00,69.8,68.9,29.97,WSW,254,0.0,5.0,94,0.00,,,0.03,44.4,meteohub,2013-06-18 12:13:00,
2013-06-18 08:18:00,69.8,68.9,29.97,SW,234,0.0,5.0,94,0.00,,,0.03,33.6,meteohub,2013-06-18 12:18:00,
2013-06-18 08:23:00,69.8,68.9,29.98,West,265,3.0,5.0,94,0.00,,,0.03,39.6,meteohub,2013-06-18 12:23:00,
2013-06-18 08:28:00,70.0,69.1,29.98,WSW,249,1.0,5.0,94,0.01,,,0.04,52.8,meteohub,2013-06-18 12:28:00,
2013-06-18 08:33:00,70.0,69.1,29.99,WSW,238,1.0,5.0,94,0.02,,,0.05,36.0,meteohub,2013-06-18 12:33:00,
2013-06-18 08:38:00,70.0,69.1,29.99,West,265,0.0,10.0,94,0.03,,,0.06,109.2,meteohub,2013-06-18 12:38:00,
2013-06-18 08:44:00,70.2,69.3,29.99,West,261,0.0,10.0,94,0.03,,,0.06,86.4,meteohub,2013-06-18 12:44:00,
2013-06-18 08:49:00,70.2,69.3,29.99,West,269,0.0,10.0,94,0.04,,,0.07,13.2,meteohub,2013-06-18 12:49:00,
2013-06-18 08:54:00,70.0,69.1,30.00,West,266,4.0,8.0,94,0.05,,,0.08,27.6,meteohub,2013-06-18 12:54:00,
2013-06-18 08:59:00,70.0,69.1,30.00,WSW,257,0.0,7.0,94,0.06,,,0.08,42.0,meteohub,2013-06-18 12:59:00,
2013-06-18 09:04:00,69.6,68.7,30.00,WSW,240,0.0,4.0,94,0.07,,,0.10,36.0,meteohub,2013-06-18 13:04:00,
2013-06-18 09:09:00,69.4,68.5,30.00,SW,225,0.0,4.0,94,0.09,,,0.12,36.0,meteohub,2013-06-18 13:09:00,
2013-06-18 09:14:00,69.3,68.4,29.99,SSW,208,0.0,6.0,94,0.10,,,0.13,64.8,meteohub,2013-06-18 13:14:00,
2013-06-18 09:19:00,68.9,68.0,29.98,SW,227,0.0,6.0,94,0.12,,,0.15,74.4,meteohub,2013-06-18 13:19:00,
2013-06-18 09:24:00,69.1,68.2,29.99,WSW,254,0.0,6.0,94,0.12,,,0.16,78.0,meteohub,2013-06-18 13:24:00,
2013-06-18 09:29:00,68.9,68.0,29.99,WSW,254,0.0,3.0,94,0.11,,,0.16,56.4,meteohub,2013-06-18 13:29:00,
2013-06-18 09:34:00,68.7,67.8,29.98,WSW,254,0.0,3.0,94,0.11,,,0.16,64.8,meteohub,2013-06-18 13:34:00,
2013-06-18 09:39:00,68.9,68.0,29.98,West,276,0.0,1.0,94,0.10,,,0.16,162.0,meteohub,2013-06-18 13:39:00,
2013-06-18 09:45:00,69.4,68.5,29.98,West,276,0.0,4.0,94,0.09,,,0.16,205.2,meteohub,2013-06-18 13:45:00,
2013-06-18 09:50:00,69.4,68.5,29.97,WSW,242,0.0,4.0,94,0.09,,,0.16,292.8,meteohub,2013-06-18 13:50:00,
2013-06-18 09:55:00,70.2,69.3,29.96,WSW,242,0.0,4.0,94,0.08,,,0.16,306.0,meteohub,2013-06-18 13:55:00,
2013-06-18 10:00:00,70.9,70.0,29.96,WSW,242,0.0,3.0,94,0.06,,,0.16,753.6,meteohub,2013-06-18 14:00:00,
2013-06-18 10:05:00,71.1,70.2,29.96,WSW,242,0.0,3.0,94,0.05,,,0.16,584.4,meteohub,2013-06-18 14:05:00,
2013-06-18 10:10:00,71.1,70.2,29.96,WSW,248,0.0,1.0,94,0.03,,,0.16,386.4,meteohub,2013-06-18 14:10:00,
2013-06-18 10:15:00,71.6,70.7,29.96,WSW,248,0.0,1.0,94,0.02,,,0.16,529.2,meteohub,2013-06-18 14:15:00,
2013-06-18 10:20:00,72.1,70.9,29.96,WSW,247,0.0,1.0,93,0.00,,,0.16,757.2,meteohub,2013-06-18 14:20:00,
2013-06-18 10:25:00,72.5,71.2,29.96,SW,220,2.0,7.0,93,0.00,,,0.16,778.8,meteohub,2013-06-18 14:25:00,
2013-06-18 10:30:00,72.7,71.2,29.96,WSW,249,0.0,7.0,92,0.00,,,0.16,801.6,meteohub,2013-06-18 14:30:00,
2013-06-18 10:35:00,73.6,71.8,29.96,WSW,249,0.0,7.0,91,0.00,,,0.16,904.8,meteohub,2013-06-18 14:35:00,
2013-06-18 10:40:00,73.9,71.8,29.96,SW,225,6.0,7.0,90,0.00,,,0.16,342.0,meteohub,2013-06-18 14:40:00,
2013-06-18 10:45:00,74.8,72.7,29.96,WSW,242,0.0,7.0,90,0.00,,,0.16,1016.4,meteohub,2013-06-18 14:45:00,
2013-06-18 10:50:00,74.7,72.1,29.96,SW,236,0.0,7.0,89,0.00,,,0.16,367.2,meteohub,2013-06-18 14:50:00,
2013-06-18 10:55:00,74.3,71.4,29.95,West,259,1.0,7.0,88,0.00,,,0.16,255.6,meteohub,2013-06-18 14:55:00,
2013-06-18 11:00:00,74.1,71.2,29.96,WSW,241,2.0,8.0,88,0.00,,,0.16,314.4,meteohub,2013-06-18 15:00:00,
2013-06-18 11:05:00,74.1,71.6,29.96,WSW,241,4.0,8.0,89,0.00,,,0.16,417.6,meteohub,2013-06-18 15:05:00,
2013-06-18 11:10:00,74.7,71.8,29.96,SW,235,0.0,7.0,88,0.00,,,0.16,508.8,meteohub,2013-06-18 15:10:00,
2013-06-18 11:15:00,75.0,72.1,29.96,WSW,243,0.0,7.0,88,0.00,,,0.16,158.4,meteohub,2013-06-18 15:15:00,
2013-06-18 11:20:00,75.0,72.1,29.96,SW,236,0.0,8.0,88,0.00,,,0.16,440.4,meteohub,2013-06-18 15:20:00,
2013-06-18 11:25:00,75.6,72.7,29.97,SW,227,8.0,8.0,88,0.00,,,0.16,440.4,meteohub,2013-06-18 15:25:00,
2013-06-18 11:30:00,75.6,72.5,29.97,SSW,202,3.0,10.0,87,0.00,,,0.16,440.4,meteohub,2013-06-18 15:30:00,
2013-06-18 11:35:00,76.3,72.9,29.96,SW,234,0.0,10.0,86,0.00,,,0.16,464.4,meteohub,2013-06-18 15:35:00,
2013-06-18 11:40:00,76.5,73.0,29.96,WSW,252,1.0,10.0,86,0.00,,,0.16,640.8,meteohub,2013-06-18 15:40:00,
2013-06-18 11:45:00,76.8,73.4,29.96,WSW,249,0.0,10.0,86,0.00,,,0.16,664.8,meteohub,2013-06-18 15:45:00,
2013-06-18 11:50:00,77.5,73.0,29.96,SW,235,8.0,8.0,83,0.00,,,0.16,1084.8,meteohub,2013-06-18 15:50:00,
2013-06-18 11:55:00,76.8,72.7,29.95,SW,217,1.0,9.0,84,0.00,,,0.16,540.0,meteohub,2013-06-18 15:55:00,
2013-06-18 12:00:00,77.4,72.9,29.94,SSW,211,5.0,9.0,83,0.00,,,0.16,1033.2,meteohub,2013-06-18 16:00:00,
2013-06-18 12:05:00,77.7,72.5,29.94,SW,215,2.0,10.0,81,0.00,,,0.16,1041.6,meteohub,2013-06-18 16:05:00,
2013-06-18 12:10:00,78.1,72.9,29.94,SW,229,1.0,10.0,81,0.00,,,0.16,1274.4,meteohub,2013-06-18 16:10:00,
2013-06-18 12:15:00,79.2,74.3,29.93,SW,226,3.0,10.0,82,0.00,,,0.16,1252.8,meteohub,2013-06-18 16:15:00,
2013-06-18 12:20:00,79.5,73.6,29.93,SW,232,0.0,10.0,79,0.00,,,0.16,1282.8,meteohub,2013-06-18 16:20:00,
2013-06-18 12:25:00,79.7,74.1,29.93,SW,236,5.0,9.0,80,0.00,,,0.16,1246.8,meteohub,2013-06-18 16:25:00,
2013-06-18 12:30:00,80.1,74.1,29.92,NNE,14,0.0,9.0,79,0.00,,,0.16,1318.8,meteohub,2013-06-18 16:30:00,
2013-06-18 12:35:00,80.2,74.3,29.93,WSW,241,5.0,13.0,79,0.00,,,0.16,1206.0,meteohub,2013-06-18 16:35:00,
2013-06-18 12:40:00,80.2,73.6,29.93,SW,225,0.0,13.0,77,0.00,,,0.16,537.6,meteohub,2013-06-18 16:40:00,
2013-06-18 12:45:00,80.2,73.0,29.92,SW,221,1.0,13.0,76,0.00,,,0.16,1341.6,meteohub,2013-06-18 16:45:00,
2013-06-18 12:50:00,80.4,74.1,29.92,West,276,1.0,12.0,78,0.00,,,0.16,1208.4,meteohub,2013-06-18 16:50:00,
2013-06-18 12:55:00,81.0,74.1,29.92,WSW,237,7.0,11.0,77,0.00,,,0.16,1238.4,meteohub,2013-06-18 16:55:00,
2013-06-18 13:00:00,80.8,73.6,29.92,West,259,2.0,11.0,76,0.00,,,0.16,234.0,meteohub,2013-06-18 17:00:00,
2013-06-18 13:05:00,80.8,73.9,29.91,WSW,244,1.0,11.0,77,0.00,,,0.16,1328.4,meteohub,2013-06-18 17:05:00,
2013-06-18 13:10:00,81.1,73.9,29.91,West,267,5.0,11.0,76,0.00,,,0.16,470.4,meteohub,2013-06-18 17:10:00,
2013-06-18 13:15:00,80.2,73.0,29.92,SW,236,3.0,11.0,76,0.00,,,0.16,234.0,meteohub,2013-06-18 17:15:00,
2013-06-18 13:20:00,80.8,74.5,29.91,WSW,248,3.0,11.0,78,0.00,,,0.16,662.4,meteohub,2013-06-18 17:20:00,
2013-06-18 13:25:00,80.4,73.2,29.91,WSW,244,0.0,11.0,76,0.00,,,0.16,223.2,meteohub,2013-06-18 17:25:00,
2013-06-18 13:30:00,80.1,73.0,29.92,WNW,284,2.0,10.0,76,0.00,,,0.16,202.8,meteohub,2013-06-18 17:30:00,
2013-06-18 13:35:00,79.9,73.2,29.91,WSW,247,0.0,10.0,77,0.00,,,0.16,422.4,meteohub,2013-06-18 17:35:00,
2013-06-18 13:40:00,80.2,73.0,29.91,SW,219,8.0,8.0,76,0.00,,,0.16,430.8,meteohub,2013-06-18 17:40:00,
2013-06-18 13:45:00,80.8,73.2,29.91,WSW,241,2.0,8.0,75,0.00,,,0.16,498.0,meteohub,2013-06-18 17:45:00,
2013-06-18 13:50:00,81.9,73.6,29.91,NNW,348,5.0,11.0,73,0.00,,,0.16,267.6,meteohub,2013-06-18 17:50:00,
2013-06-18 13:55:00,80.8,72.9,29.91,West,272,0.0,11.0,74,0.00,,,0.16,183.6,meteohub,2013-06-18 17:55:00,
2013-06-18 14:00:00,79.3,73.4,29.91,WSW,237,3.0,10.0,79,0.00,,,0.16,234.0,meteohub,2013-06-18 18:00:00,
2013-06-18 14:05:00,78.3,73.4,29.91,West,265,3.0,10.0,82,0.00,,,0.16,202.8,meteohub,2013-06-18 18:05:00,
2013-06-18 14:10:00,77.2,73.0,29.91,West,266,0.0,10.0,84,0.01,,,0.17,255.6,meteohub,2013-06-18 18:10:00,
2013-06-18 14:15:00,76.8,73.0,29.91,SW,217,5.0,9.0,85,0.01,,,0.17,280.8,meteohub,2013-06-18 18:15:00,
2013-06-18 14:20:00,76.6,73.2,29.91,SW,232,5.0,9.0,86,0.01,,,0.17,244.8,meteohub,2013-06-18 18:20:00,
2013-06-18 14:25:00,76.3,72.9,29.90,WSW,238,0.0,8.0,86,0.02,,,0.18,426.0,meteohub,2013-06-18 18:25:00,
2013-06-18 14:30:00,76.6,73.2,29.90,WNW,288,4.0,8.0,86,0.02,,,0.18,1246.8,meteohub,2013-06-18 18:30:00,
2013-06-18 14:35:00,77.5,73.8,29.90,WSW,254,3.0,8.0,85,0.02,,,0.18,453.6,meteohub,2013-06-18 18:35:00,
2013-06-18 14:40:00,77.5,73.0,29.90,West,259,0.0,8.0,83,0.02,,,0.18,423.6,meteohub,2013-06-18 18:40:00,
2013-06-18 14:46:00,77.7,73.6,29.90,West,267,0.0,8.0,84,0.02,,,0.18,414.0,meteohub,2013-06-18 18:46:00,
2013-06-18 14:51:00,79.0,74.8,29.90,WSW,245,0.0,8.0,84,0.02,,,0.18,1246.8,meteohub,2013-06-18 18:51:00,
2013-06-18 14:56:00,80.4,74.8,29.90,WSW,251,1.0,7.0,80,0.02,,,0.18,1154.4,meteohub,2013-06-18 18:56:00,
2013-06-18 15:01:00,81.1,75.2,29.89,WSW,239,1.0,7.0,79,0.02,,,0.18,1172.4,meteohub,2013-06-18 19:01:00,
2013-06-18 15:06:00,81.1,75.2,29.89,WSW,240,0.0,7.0,79,0.01,,,0.18,379.2,meteohub,2013-06-18 19:06:00,
2013-06-18 15:11:00,81.1,74.7,29.89,SW,221,0.0,7.0,78,0.01,,,0.18,247.2,meteohub,2013-06-18 19:11:00,
2013-06-18 15:16:00,80.6,74.3,29.89,WSW,252,0.0,6.0,78,0.01,,,0.18,214.8,meteohub,2013-06-18 19:16:00,
2013-06-18 15:21:00,79.7,74.1,29.89,West,262,0.0,6.0,80,0.01,,,0.18,250.8,meteohub,2013-06-18 19:21:00,
2013-06-18 15:26:00,79.5,73.9,29.89,WSW,249,0.0,6.0,80,0.00,,,0.18,384.0,meteohub,2013-06-18 19:26:00,
2013-06-18 15:31:00,81.3,75.4,29.88,West,270,0.0,5.0,79,0.00,,,0.18,1113.6,meteohub,2013-06-18 19:31:00,
2013-06-18 15:36:00,82.9,75.4,29.88,West,267,0.0,5.0,75,0.00,,,0.18,1032.0,meteohub,2013-06-18 19:36:00,
2013-06-18 15:41:00,82.9,74.1,29.88,WSW,246,7.0,7.0,72,0.00,,,0.18,999.6,meteohub,2013-06-18 19:41:00,
2013-06-18 15:46:00,83.1,75.2,29.88,WSW,256,0.0,8.0,74,0.00,,,0.18,999.6,meteohub,2013-06-18 19:46:00,
2013-06-18 15:51:00,83.3,74.5,29.88,SW,236,2.0,8.0,72,0.00,,,0.18,970.8,meteohub,2013-06-18 19:51:00,
2013-06-18 15:56:00,83.1,74.3,29.88,WSW,251,0.0,8.0,72,0.00,,,0.18,915.6,meteohub,2013-06-18 19:56:00,
2013-06-18 16:01:00,83.5,74.7,29.87,West,261,1.0,8.0,72,0.00,,,0.18,924.0,meteohub,2013-06-18 20:01:00,
2013-06-18 16:06:00,84.2,74.7,29.87,WSW,257,0.0,6.0,70,0.00,,,0.18,894.0,meteohub,2013-06-18 20:06:00,
2013-06-18 16:11:00,84.6,75.0,29.87,West,265,2.0,9.0,70,0.00,,,0.18,356.4,meteohub,2013-06-18 20:11:00,
2013-06-18 16:16:00,84.0,74.8,29.87,West,273,0.0,9.0,71,0.00,,,0.18,432.0,meteohub,2013-06-18 20:16:00,
2013-06-18 16:21:00,83.1,73.9,29.87,WSW,246,0.0,9.0,71,0.00,,,0.18,255.6,meteohub,2013-06-18 20:21:00,
2013-06-18 16:26:00,82.4,74.1,29.87,NW,315,1.0,7.0,73,0.00,,,0.18,284.4,meteohub,2013-06-18 20:26:00,
2013-06-18 16:31:00,82.2,73.9,29.88,WSW,240,0.0,10.0,73,0.00,,,0.18,164.4,meteohub,2013-06-18 20:31:00,
2013-06-18 16:36:00,81.9,73.9,29.88,WSW,248,0.0,10.0,74,0.00,,,0.18,192.0,meteohub,2013-06-18 20:36:00,
2013-06-18 16:41:00,81.3,73.8,29.87,WSW,254,0.0,10.0,75,0.00,,,0.18,150.0,meteohub,2013-06-18 20:41:00,
2013-06-18 16:46:00,81.0,74.7,29.88,West,261,0.0,8.0,78,0.00,,,0.18,231.6,meteohub,2013-06-18 20:46:00,
2013-06-18 16:51:00,79.5,71.2,29.90,NE,47,1.0,6.0,73,0.00,,,0.18,126.0,meteohub,2013-06-18 20:51:00,
2013-06-18 16:56:00,77.2,70.2,29.90,South,190,1.0,6.0,76,0.00,,,0.18,58.8,meteohub,2013-06-18 20:56:00,
2013-06-18 17:01:00,76.1,70.2,29.90,North,0,2.0,8.0,79,0.00,,,0.18,58.8,meteohub,2013-06-18 21:01:00,
2013-06-18 17:06:00,75.6,70.0,29.91,SW,219,0.0,12.0,80,0.00,,,0.18,22.8,meteohub,2013-06-18 21:06:00,
2013-06-18 17:11:00,74.8,70.0,29.90,WSW,255,4.0,12.0,82,0.00,,,0.18,124.8,meteohub,2013-06-18 21:11:00,
2013-06-18 17:16:00,74.5,69.3,29.90,ESE,120,0.0,12.0,81,0.00,,,0.18,133.2,meteohub,2013-06-18 21:16:00,
2013-06-18 17:21:00,74.3,69.8,29.90,ESE,122,0.0,5.0,83,0.00,,,0.18,147.6,meteohub,2013-06-18 21:21:00,
2013-06-18 17:26:00,74.3,69.8,29.90,WSW,258,0.0,5.0,83,0.00,,,0.18,160.8,meteohub,2013-06-18 21:26:00,
2013-06-18 17:31:00,74.1,69.3,29.89,West,261,0.0,6.0,82,0.00,,,0.18,225.6,meteohub,2013-06-18 21:31:00,
2013-06-18 17:36:00,74.8,70.3,29.89,WSW,246,0.0,6.0,83,0.00,,,0.18,308.4,meteohub,2013-06-18 21:36:00,
2013-06-18 17:41:00,75.6,70.7,29.89,WNW,292,2.0,3.0,82,0.00,,,0.18,312.0,meteohub,2013-06-18 21:41:00,
2013-06-18 17:46:00,75.7,70.5,29.88,WSW,244,0.0,3.0,81,0.00,,,0.18,274.8,meteohub,2013-06-18 21:46:00,
2013-06-18 17:51:00,75.9,70.7,29.88,WSW,253,0.0,3.0,81,0.00,,,0.18,231.6,meteohub,2013-06-18 21:51:00,
2013-06-18 17:56:00,76.3,71.4,29.88,WSW,253,0.0,4.0,82,0.00,,,0.18,198.0,meteohub,2013-06-18 21:56:00,
2013-06-18 18:01:00,76.1,71.2,29.88,WSW,253,0.0,4.0,82,0.00,,,0.18,183.6,meteohub,2013-06-18 22:01:00,
2013-06-18 18:06:00,76.3,71.4,29.88,WSW,252,0.0,1.0,82,0.00,,,0.18,172.8,meteohub,2013-06-18 22:06:00,
2013-06-18 18:11:00,76.5,71.6,29.88,WSW,252,0.0,1.0,82,0.00,,,0.18,170.4,meteohub,2013-06-18 22:11:00,
2013-06-18 18:16:00,76.5,71.6,29.88,WSW,253,0.0,1.0,82,0.00,,,0.18,166.8,meteohub,2013-06-18 22:16:00,
2013-06-18 18:22:00,76.5,72.0,29.88,WSW,253,0.0,1.0,83,0.00,,,0.18,152.4,meteohub,2013-06-18 22:22:00,
2013-06-18 18:27:00,76.1,71.2,29.88,WSW,252,0.0,5.0,82,0.00,,,0.18,133.2,meteohub,2013-06-18 22:27:00,
2013-06-18 18:32:00,75.9,71.1,29.87,WSW,244,0.0,5.0,82,0.00,,,0.18,136.8,meteohub,2013-06-18 22:32:00,
2013-06-18 18:37:00,75.9,71.1,29.88,WSW,249,0.0,5.0,82,0.00,,,0.18,158.4,meteohub,2013-06-18 22:37:00,
2013-06-18 18:42:00,76.3,71.4,29.88,WSW,249,0.0,3.0,82,0.00,,,0.18,326.4,meteohub,2013-06-18 22:42:00,
2013-06-18 18:47:00,77.0,71.8,29.88,SW,226,3.0,3.0,81,0.00,,,0.18,571.2,meteohub,2013-06-18 22:47:00,
2013-06-18 18:52:00,77.4,71.4,29.88,WSW,257,5.0,7.0,79,0.00,,,0.18,276.0,meteohub,2013-06-18 22:52:00,
2013-06-18 18:57:00,77.4,71.8,29.88,WSW,257,0.0,7.0,80,0.00,,,0.18,141.6,meteohub,2013-06-18 22:57:00,
2013-06-18 19:02:00,77.2,71.6,29.88,West,269,0.0,7.0,80,0.00,,,0.18,105.6,meteohub,2013-06-18 23:02:00,
2013-06-18 19:07:00,76.8,71.6,29.88,WSW,244,4.0,5.0,81,0.00,,,0.18,109.2,meteohub,2013-06-18 23:07:00,
2013-06-18 19:12:00,76.5,71.6,29.88,WSW,256,0.0,6.0,82,0.00,,,0.18,116.4,meteohub,2013-06-18 23:12:00,
2013-06-18 19:17:00,76.3,71.4,29.88,WSW,240,0.0,6.0,82,0.00,,,0.18,126.0,meteohub,2013-06-18 23:17:00,
2013-06-18 19:22:00,76.3,71.8,29.88,WSW,240,0.0,4.0,83,0.00,,,0.18,122.4,meteohub,2013-06-18 23:22:00,
2013-06-18 19:27:00,76.3,71.4,29.88,WSW,240,0.0,4.0,82,0.00,,,0.18,103.2,meteohub,2013-06-18 23:27:00,
2013-06-18 19:32:00,76.5,72.0,29.88,WSW,246,5.0,5.0,83,0.00,,,0.18,86.4,meteohub,2013-06-18 23:32:00,
2013-06-18 19:37:00,76.3,71.4,29.88,WSW,246,0.0,5.0,82,0.00,,,0.18,80.4,meteohub,2013-06-18 23:37:00,
2013-06-18 19:42:00,75.9,71.1,29.88,WSW,242,1.0,5.0,82,0.00,,,0.18,56.4,meteohub,2013-06-18 23:42:00,
2013-06-18 19:47:00,75.9,71.4,29.88,WSW,250,0.0,5.0,83,0.00,,,0.18,52.8,meteohub,2013-06-18 23:47:00,
2013-06-18 19:52:00,75.7,71.2,29.89,West,261,1.0,4.0,83,0.00,,,0.18,56.4,meteohub,2013-06-18 23:52:00,
2013-06-18 19:57:00,75.7,70.9,29.88,West,260,0.0,4.0,82,0.00,,,0.18,52.8,meteohub,2013-06-18 23:57:00,
2013-06-18 20:02:00,75.6,70.7,29.89,WSW,254,0.0,3.0,82,0.00,,,0.18,39.6,meteohub,2013-06-19 00:02:00,
2013-06-18 20:07:00,75.4,70.5,29.89,WSW,250,0.0,5.0,82,0.00,,,0.18,30.0,meteohub,2013-06-19 00:07:00,
2013-06-18 20:12:00,75.2,70.3,29.89,WSW,250,0.0,5.0,82,0.00,,,0.18,25.2,meteohub,2013-06-19 00:12:00,
2013-06-18 20:17:00,75.0,70.5,29.89,WSW,250,0.0,3.0,83,0.00,,,0.18,22.8,meteohub,2013-06-19 00:17:00,
2013-06-18 20:22:00,74.8,70.3,29.89,West,266,0.0,1.0,83,0.00,,,0.18,21.6,meteohub,2013-06-19 00:22:00,
2013-06-18 20:27:00,74.8,70.3,29.89,WSW,243,0.0,3.0,83,0.00,,,0.18,14.4,meteohub,2013-06-19 00:27:00,
2013-06-18 20:32:00,74.7,70.2,29.90,WSW,244,0.0,3.0,83,0.00,,,0.18,13.2,meteohub,2013-06-19 00:32:00,
2013-06-18 20:37:00,74.7,70.2,29.90,WSW,244,0.0,3.0,83,0.00,,,0.18,10.8,meteohub,2013-06-19 00:37:00,
2013-06-18 20:42:00,74.5,70.0,29.90,WSW,244,0.0,2.0,83,0.00,,,0.18,6.0,meteohub,2013-06-19 00:42:00,
2013-06-18 20:47:00,74.1,69.6,29.90,WSW,244,0.0,1.0,83,0.00,,,0.18,6.0,meteohub,2013-06-19 00:47:00,
2013-06-18 20:52:00,73.9,69.8,29.90,WSW,244,0.0,1.0,84,0.00,,,0.18,0.0,meteohub,2013-06-19 00:52:00,
2013-06-18 20:57:00,73.8,69.6,29.90,WSW,249,0.0,1.0,84,0.00,,,0.18,0.0,meteohub,2013-06-19 00:57:00,
2013-06-18 21:02:00,73.8,70.0,29.91,WSW,249,0.0,1.0,85,0.00,,,0.18,0.0,meteohub,2013-06-19 01:02:00,
2013-06-18 21:07:00,73.6,69.8,29.91,WSW,249,0.0,1.0,85,0.00,,,0.18,0.0,meteohub,2013-06-19 01:07:00,
2013-06-18 21:12:00,73.6,69.8,29.91,WSW,249,0.0,1.0,85,0.00,,,0.18,0.0,meteohub,2013-06-19 01:12:00,
2013-06-18 21:17:00,73.2,69.8,29.91,WSW,249,0.0,1.0,86,0.00,,,0.18,0.0,meteohub,2013-06-19 01:17:00,
2013-06-18 21:22:00,73.2,69.8,29.91,WSW,249,0.0,1.0,86,0.00,,,0.18,0.0,meteohub,2013-06-19 01:22:00,
2013-06-18 21:27:00,73.0,70.0,29.91,WSW,249,0.0,1.0,87,0.00,,,0.18,0.0,meteohub,2013-06-19 01:27:00,
2013-06-18 21:32:00,73.0,70.0,29.91,WSW,249,0.0,1.0,87,0.00,,,0.18,0.0,meteohub,2013-06-19 01:32:00,
2013-06-18 21:37:00,73.0,70.0,29.91,WSW,249,0.0,0.0,87,0.00,,,0.18,0.0,meteohub,2013-06-19 01:37:00,
2013-06-18 21:42:00,73.0,70.0,29.91,WSW,249,0.0,0.0,87,0.00,,,0.18,0.0,meteohub,2013-06-19 01:42:00,
2013-06-18 21:47:00,73.2,69.8,29.91,WSW,249,0.0,0.0,86,0.00,,,0.18,0.0,meteohub,2013-06-19 01:47:00,
2013-06-18 21:52:00,73.2,69.8,29.91,WSW,249,0.0,0.0,86,0.00,,,0.18,0.0,meteohub,2013-06-19 01:52:00,
2013-06-18 21:57:00,73.2,70.2,29.92,WSW,249,0.0,0.0,87,0.00,,,0.18,0.0,meteohub,2013-06-19 01:57:00,
2013-06-18 22:02:00,73.2,70.2,29.92,WSW,249,0.0,0.0,87,0.00,,,0.18,0.0,meteohub,2013-06-19 02:02:00,
2013-06-18 22:07:00,73.2,69.8,29.92,WSW,250,0.0,0.0,86,0.00,,,0.18,0.0,meteohub,2013-06-19 02:07:00,
2013-06-18 22:12:00,73.2,69.8,29.93,WSW,250,0.0,0.0,86,0.00,,,0.18,0.0,meteohub,2013-06-19 02:12:00,
2013-06-18 22:17:00,73.2,69.8,29.93,WSW,250,0.0,0.0,86,0.00,,,0.18,0.0,meteohub,2013-06-19 02:17:00,
2013-06-18 22:22:00,73.0,69.6,29.93,WSW,250,0.0,0.0,86,0.00,,,0.18,0.0,meteohub,2013-06-19 02:22:00,
2013-06-18 22:27:00,73.0,70.0,29.93,WSW,250,0.0,0.0,87,0.00,,,0.18,0.0,meteohub,2013-06-19 02:27:00,
2013-06-18 22:32:00,72.9,69.8,29.93,WSW,250,0.0,0.0,87,0.00,,,0.18,0.0,meteohub,2013-06-19 02:32:00,
2013-06-18 22:37:00,72.9,69.8,29.93,WSW,250,0.0,0.0,87,0.00,,,0.18,0.0,meteohub,2013-06-19 02:37:00,
2013-06-18 22:42:00,72.7,70.0,29.92,WSW,250,0.0,0.0,88,0.00,,,0.18,0.0,meteohub,2013-06-19 02:42:00,
2013-06-18 22:47:00,72.5,69.8,29.92,WSW,250,0.0,0.0,88,0.00,,,0.18,0.0,meteohub,2013-06-19 02:47:00,
2013-06-18 22:52:00,72.3,69.6,29.92,WSW,250,0.0,0.0,88,0.00,,,0.18,0.0,meteohub,2013-06-19 02:52:00,
2013-06-18 22:57:00,72.3,69.6,29.93,WSW,250,0.0,0.0,88,0.00,,,0.18,0.0,meteohub,2013-06-19 02:57:00,
2013-06-18 23:02:00,72.3,69.6,29.92,WSW,250,0.0,0.0,88,0.00,,,0.18,0.0,meteohub,2013-06-19 03:02:00,
2013-06-18 23:07:00,72.3,69.6,29.92,WSW,250,0.0,0.0,88,0.00,,,0.18,0.0,meteohub,2013-06-19 03:07:00,
2013-06-18 23:12:00,72.1,69.4,29.93,WSW,250,0.0,0.0,88,0.00,,,0.18,0.0,meteohub,2013-06-19 03:12:00,
2013-06-18 23:17:00,72.1,69.4,29.93,WSW,239,0.0,0.0,88,0.00,,,0.18,0.0,meteohub,2013-06-19 03:17:00,
2013-06-18 23:22:00,72.1,69.6,29.93,WSW,245,0.0,0.0,89,0.00,,,0.18,0.0,meteohub,2013-06-19 03:22:00,
2013-06-18 23:27:00,72.1,69.6,29.93,WSW,246,0.0,0.0,89,0.00,,,0.18,0.0,meteohub,2013-06-19 03:27:00,
2013-06-18 23:32:00,72.1,69.6,29.93,WSW,241,0.0,0.0,89,0.00,,,0.18,0.0,meteohub,2013-06-19 03:32:00,
2013-06-18 23:37:00,72.0,69.4,29.93,WSW,250,0.0,0.0,89,0.00,,,0.18,0.0,meteohub,2013-06-19 03:37:00,
2013-06-18 23:42:00,72.0,69.4,29.93,WSW,246,0.0,0.0,89,0.00,,,0.18,0.0,meteohub,2013-06-19 03:42:00,
2013-06-18 23:47:00,72.0,69.4,29.93,WSW,240,3.0,0.0,89,0.00,,,0.18,0.0,meteohub,2013-06-19 03:47:00,
2013-06-18 23:52:00,72.0,69.4,29.93,WSW,243,1.0,6.0,89,0.00,,,0.18,0.0,meteohub,2013-06-19 03:52:00,
2013-06-18 23:57:00,72.0,69.4,29.93,WSW,244,0.0,6.0,89,0.00,,,0.18,0.0,meteohub,2013-06-19 03:57:00,